createdAt,value
2024-01-14T00:02:01.348Z,32.85
2024-01-14T00:04:29.365Z,38.60
2024-01-14T00:06:57.294Z,37.45
2024-01-14T00:09:25.122Z,38.50
2024-01-14T00:11:53.152Z,39.58
2024-01-14T00:14:22.324Z,37.00
2024-01-14T00:16:50.634Z,40.70
2024-01-14T00:19:18.679Z,38.75
2024-01-14T00:21:46.479Z,35.38
2024-01-14T00:24:14.282Z,44.72
2024-01-14T00:26:42.106Z,42.67
2024-01-14T00:29:10.149Z,41.17
2024-01-14T00:31:39.580Z,41.53
2024-01-14T00:34:07.470Z,45.25
2024-01-14T00:36:40.316Z,39.00
2024-01-14T00:39:08.677Z,41.05
2024-01-14T00:41:37.144Z,39.78
2024-01-14T00:44:05.330Z,45.05
2024-01-14T00:46:33.760Z,39.33
2024-01-14T00:49:03.153Z,44.45
2024-01-14T00:51:31.083Z,40.65
2024-01-14T00:53:59.036Z,44.67
2024-01-14T00:56:26.902Z,44.35
2024-01-14T00:58:54.802Z,44.28
2024-01-14T01:01:22.984Z,40.28
2024-01-14T01:03:50.938Z,47.85
2024-01-14T01:06:20.201Z,41.35
2024-01-14T01:08:48.387Z,48.33
2024-01-14T01:11:17.898Z,44.95
2024-01-14T01:13:45.672Z,43.85
2024-01-14T01:16:13.659Z,44.42
2024-01-14T01:18:41.744Z,43.13
2024-01-14T01:21:09.772Z,44.78
2024-01-14T01:23:39.042Z,43.15
2024-01-14T01:26:06.989Z,43.95
2024-01-14T01:28:34.734Z,41.42
2024-01-14T01:31:02.645Z,42.25
2024-01-14T01:33:30.757Z,41.30
2024-01-14T01:35:58.707Z,47.50
2024-01-14T01:38:26.629Z,42.45
2024-01-14T01:40:56.102Z,40.75
2024-01-14T01:43:23.945Z,45.88
2024-01-14T01:45:52.426Z,46.83
2024-01-14T01:48:22.846Z,44.15
2024-01-14T01:50:53.834Z,41.85
2024-01-14T01:53:21.950Z,49.90
2024-01-14T01:55:50.148Z,40.65
2024-01-14T01:58:19.523Z,44.55
2024-01-14T02:00:48.041Z,39.25
2024-01-14T02:03:16.224Z,41.35
2024-01-14T02:05:46.116Z,43.15
2024-01-14T02:08:14.136Z,41.80
2024-01-14T02:10:42.263Z,44.58
2024-01-14T02:13:10.246Z,44.35
2024-01-14T02:15:39.403Z,42.88
2024-01-14T02:18:08.723Z,45.85
2024-01-14T02:20:36.595Z,42.22
2024-01-14T02:23:08.803Z,40.85
2024-01-14T02:25:37.977Z,45.90
2024-01-14T02:28:06.397Z,47.95
2024-01-14T02:30:36.751Z,41.33
2024-01-14T02:33:05.223Z,43.47
2024-01-14T02:35:33.141Z,47.80
2024-01-14T02:38:00.941Z,43.50
2024-01-14T02:40:28.692Z,42.83
2024-01-14T02:42:57.992Z,38.40
2024-01-14T02:45:25.832Z,45.28
2024-01-14T02:47:53.838Z,42.08
2024-01-14T02:50:21.666Z,39.90
2024-01-14T02:52:49.534Z,41.30
2024-01-14T02:55:18.025Z,46.17
2024-01-14T02:57:46.926Z,40.63
2024-01-14T03:00:17.376Z,41.80
2024-01-14T03:02:45.241Z,40.85
2024-01-14T03:05:13.203Z,43.35
2024-01-14T03:07:41.172Z,43.33
2024-01-14T03:10:09.879Z,43.17
2024-01-14T03:12:37.852Z,40.03
2024-01-14T03:15:06.205Z,41.88
2024-01-14T03:17:35.495Z,43.38
2024-01-14T03:20:03.996Z,44.25
2024-01-14T03:22:31.876Z,44.80
2024-01-14T03:24:59.704Z,43.78
2024-01-14T03:27:29.057Z,43.83
2024-01-14T03:29:57.158Z,47.92
2024-01-14T03:32:24.994Z,38.67
2024-01-14T03:34:54.246Z,41.80
2024-01-14T03:37:22.422Z,43.03
2024-01-14T03:39:51.137Z,45.45
2024-01-14T03:42:19.012Z,47.53
2024-01-14T03:44:46.869Z,46.22
2024-01-14T03:47:14.655Z,50.08
2024-01-14T03:49:42.590Z,51.85
2024-01-14T03:52:11.806Z,45.20
2024-01-14T03:54:39.846Z,51.65
2024-01-14T03:57:08.051Z,49.38
2024-01-14T03:59:35.963Z,49.05
2024-01-14T04:02:03.960Z,48.33
2024-01-14T04:04:31.759Z,49.00
2024-01-14T04:06:59.751Z,46.95
2024-01-14T04:09:29.059Z,48.70
2024-01-14T04:11:56.851Z,51.35
2024-01-14T04:14:25.156Z,50.65
2024-01-14T04:16:52.945Z,49.72
2024-01-14T04:19:20.813Z,52.53
2024-01-14T04:21:49.022Z,49.78
2024-01-14T04:24:16.886Z,43.78
2024-01-14T04:26:46.012Z,55.45
2024-01-14T04:29:13.967Z,54.70
2024-01-14T04:31:41.853Z,51.42
2024-01-14T04:34:09.874Z,47.53
2024-01-14T04:36:38.230Z,46.17
2024-01-14T04:39:06.658Z,46.92
2024-01-14T04:41:34.474Z,45.13
2024-01-14T04:44:03.688Z,47.45
2024-01-14T04:46:31.461Z,47.80
2024-01-14T04:48:59.597Z,49.13
2024-01-14T04:51:27.626Z,47.92
2024-01-14T04:53:55.668Z,50.53
2024-01-14T04:56:23.641Z,49.72
2024-01-14T04:58:51.481Z,48.75
2024-01-14T05:01:20.779Z,41.08
2024-01-14T05:03:48.835Z,47.00
2024-01-14T05:06:17.042Z,47.20
2024-01-14T05:08:45.137Z,47.13
2024-01-14T05:11:13.068Z,43.03
2024-01-14T05:13:41.125Z,45.45
2024-01-14T05:16:08.955Z,44.45
2024-01-14T05:18:38.477Z,43.65
2024-01-14T05:21:07.516Z,48.03
2024-01-14T05:23:35.333Z,46.17
2024-01-14T05:26:05.144Z,48.75
2024-01-14T05:28:32.937Z,42.75
2024-01-14T05:31:00.948Z,41.65
2024-01-14T05:33:28.932Z,37.38
2024-01-14T05:35:58.690Z,44.65
2024-01-14T05:38:26.547Z,43.85
2024-01-14T05:40:54.380Z,36.70
2024-01-14T05:43:22.169Z,40.88
2024-01-14T05:45:49.966Z,44.63
2024-01-14T05:48:21.342Z,46.35
2024-01-14T05:50:51.608Z,47.28
2024-01-14T05:53:21.267Z,45.80
2024-01-14T05:55:49.076Z,44.90
2024-01-14T05:58:16.946Z,41.53
2024-01-14T06:00:44.913Z,38.15
2024-01-14T06:03:12.814Z,43.08
2024-01-14T06:05:40.668Z,37.92
2024-01-14T06:08:08.538Z,46.00
2024-01-14T06:10:40.115Z,41.92
2024-01-14T06:13:08.141Z,39.67
2024-01-14T06:15:36.014Z,39.53
2024-01-14T06:18:04.957Z,38.67
2024-01-14T06:20:32.903Z,40.97
2024-01-14T06:23:00.775Z,35.90
2024-01-14T06:25:28.698Z,39.90
2024-01-14T06:27:58.272Z,40.33
2024-01-14T06:30:26.127Z,43.55
2024-01-14T06:32:57.006Z,43.58
2024-01-14T06:35:25.083Z,41.20
2024-01-14T06:37:52.911Z,47.47
2024-01-14T06:40:28.219Z,47.00
2024-01-14T06:43:01.058Z,41.78
2024-01-14T06:45:29.142Z,40.78
2024-01-14T06:47:57.140Z,45.70
2024-01-14T06:50:25.178Z,35.40
2024-01-14T06:52:54.233Z,42.45
2024-01-14T06:55:22.351Z,44.53
2024-01-14T06:57:50.201Z,42.03
2024-01-14T07:00:19.833Z,37.83
2024-01-14T07:02:48.333Z,38.45
2024-01-14T07:05:16.774Z,39.00
2024-01-14T07:07:45.601Z,39.63
2024-01-14T07:10:13.499Z,43.75
2024-01-14T07:12:41.402Z,37.95
2024-01-14T07:15:09.861Z,37.55
2024-01-14T07:17:54.361Z,41.42
2024-01-14T07:20:24.901Z,37.38
2024-01-14T07:22:52.922Z,41.17
2024-01-14T07:25:20.865Z,39.70
2024-01-14T07:27:48.718Z,42.40
2024-01-14T07:30:19.403Z,57.65
2024-01-14T07:32:49.489Z,45.30
2024-01-14T07:35:17.607Z,39.08
2024-01-14T07:37:45.318Z,39.85
2024-01-14T07:40:13.778Z,38.65
2024-01-14T07:42:41.556Z,37.70
2024-01-14T07:45:10.205Z,43.65
2024-01-14T07:47:38.135Z,35.28
2024-01-14T07:50:08.302Z,42.42
2024-01-14T07:52:36.181Z,33.97
2024-01-14T07:55:04.191Z,40.70
2024-01-14T07:57:32.145Z,46.72
2024-01-14T08:00:00.003Z,52.95
2024-01-14T08:02:27.836Z,39.25
2024-01-14T08:04:56.016Z,37.75
2024-01-14T08:07:25.364Z,39.15
2024-01-14T08:09:53.179Z,38.50
2024-01-14T08:12:21.049Z,43.50
2024-01-14T08:14:48.913Z,46.40
2024-01-14T08:17:17.571Z,41.80
2024-01-14T08:19:45.907Z,38.92
2024-01-14T08:22:13.948Z,43.50
2024-01-14T08:24:45.117Z,40.10
2024-01-14T08:27:14.015Z,44.85
2024-01-14T08:29:42.553Z,35.95
2024-01-14T08:32:11.571Z,44.78
2024-01-14T08:34:39.672Z,41.28
2024-01-14T08:37:07.526Z,42.13
2024-01-14T08:39:35.423Z,47.40
2024-01-14T08:42:04.711Z,41.00
2024-01-14T08:44:32.499Z,47.00
2024-01-14T08:47:00.538Z,42.03
2024-01-14T08:49:31.261Z,44.47
2024-01-14T08:51:59.550Z,44.70
2024-01-14T08:54:27.674Z,46.38
2024-01-14T08:56:55.818Z,50.30
2024-01-14T08:59:25.085Z,73.15
2024-01-14T09:01:52.914Z,52.03
2024-01-14T09:04:21.079Z,44.80
2024-01-14T09:06:49.036Z,42.50
2024-01-14T09:09:17.012Z,55.38
2024-01-14T09:11:46.656Z,48.90
2024-01-14T09:14:14.591Z,46.33
2024-01-14T09:16:43.725Z,48.47
2024-01-14T09:19:11.709Z,41.58
2024-01-14T09:21:39.657Z,38.67
2024-01-14T09:24:08.096Z,49.40
2024-01-14T09:26:36.019Z,30.80
2024-01-14T09:29:04.004Z,43.30
2024-01-14T09:31:31.879Z,39.33
2024-01-14T09:34:01.296Z,39.20
2024-01-14T09:36:32.106Z,30.70
2024-01-14T09:39:00.051Z,39.42
2024-01-14T09:41:45.325Z,36.50
2024-01-14T09:44:16.978Z,38.13
2024-01-14T09:46:46.425Z,37.05
2024-01-14T09:49:18.164Z,40.15
2024-01-14T09:51:49.357Z,37.75
2024-01-14T09:54:17.947Z,33.22
2024-01-14T09:56:47.343Z,38.05
2024-01-14T09:59:18.993Z,34.42
2024-01-14T10:01:47.500Z,30.92
2024-01-14T10:04:18.867Z,30.75
2024-01-14T10:06:47.890Z,30.85
2024-01-14T10:09:15.862Z,59.92
2024-01-14T10:11:43.806Z,169.98
2024-01-14T10:14:12.651Z,71.07
2024-01-14T10:16:52.103Z,34.90
2024-01-14T10:19:24.984Z,31.60
2024-01-14T10:22:13.724Z,37.80
2024-01-14T10:24:43.704Z,29.35
2024-01-14T10:27:12.569Z,39.55
2024-01-14T10:29:40.621Z,33.83
2024-01-14T10:32:10.539Z,30.92
2024-01-14T10:34:39.930Z,33.85
2024-01-14T10:37:08.039Z,31.02
2024-01-14T10:39:37.234Z,32.20
2024-01-14T10:42:05.498Z,39.22
2024-01-14T10:44:33.544Z,34.38
2024-01-14T10:47:05.772Z,35.85
2024-01-14T10:49:37.330Z,30.50
2024-01-14T10:52:13.272Z,30.05
2024-01-14T10:54:49.829Z,30.08
2024-01-14T10:57:31.880Z,30.65
2024-01-14T11:00:06.113Z,34.42
2024-01-14T11:02:36.351Z,35.67
2024-01-14T11:05:05.398Z,33.97
2024-01-14T11:07:35.727Z,30.77
2024-01-14T11:10:04.738Z,30.92
2024-01-14T11:12:40.003Z,32.65
2024-01-14T11:15:14.650Z,35.90
2024-01-14T11:17:54.308Z,29.80
2024-01-14T11:20:32.161Z,29.20
2024-01-14T11:23:09.868Z,32.75
2024-01-14T11:25:39.393Z,28.33
2024-01-14T11:28:08.290Z,27.45
2024-01-14T11:30:53.319Z,27.67
2024-01-14T11:33:40.950Z,28.55
2024-01-14T11:36:10.053Z,31.60
2024-01-14T11:38:56.134Z,30.23
2024-01-14T11:41:30.144Z,28.98
2024-01-14T11:44:05.591Z,32.25
2024-01-14T11:46:41.505Z,25.75
2024-01-14T11:49:17.410Z,27.88
2024-01-14T11:51:59.188Z,29.23
2024-01-14T11:54:29.595Z,26.52
2024-01-14T11:56:57.594Z,32.42
2024-01-14T11:59:34.744Z,28.95
2024-01-14T12:02:16.699Z,31.20
2024-01-14T12:04:51.675Z,35.45
2024-01-14T12:07:26.134Z,29.42
2024-01-14T12:09:57.069Z,28.80
2024-01-14T12:12:26.249Z,27.88
2024-01-14T12:14:54.227Z,27.33
2024-01-14T12:17:22.182Z,28.00
2024-01-14T12:19:58.016Z,28.70
2024-01-14T12:22:26.333Z,29.17
2024-01-14T12:24:56.578Z,30.02
2024-01-14T12:27:24.582Z,35.67
2024-01-14T12:29:52.423Z,28.10
2024-01-14T12:32:20.321Z,27.15
2024-01-14T12:34:51.215Z,32.63
2024-01-14T12:37:19.192Z,30.02
2024-01-14T12:39:47.128Z,27.55
2024-01-14T12:42:17.916Z,33.15
2024-01-14T12:44:47.768Z,39.47
2024-01-14T12:47:15.641Z,31.75
2024-01-14T12:49:46.280Z,34.25
2024-01-14T12:52:14.211Z,34.17
2024-01-14T12:54:49.908Z,33.80
2024-01-14T12:57:23.600Z,31.83
2024-01-14T12:59:52.791Z,38.05
2024-01-14T13:02:20.917Z,37.30
2024-01-14T13:04:49.459Z,33.38
2024-01-14T13:07:17.653Z,32.00
2024-01-14T13:09:45.782Z,38.33
2024-01-14T13:12:13.746Z,35.63
2024-01-14T13:14:43.070Z,33.85
2024-01-14T13:17:11.293Z,34.05
2024-01-14T13:19:39.224Z,28.92
2024-01-14T13:22:07.943Z,36.30
2024-01-14T13:24:36.099Z,33.22
2024-01-14T13:27:04.447Z,33.53
2024-01-14T13:29:32.273Z,33.55
2024-01-14T13:32:02.326Z,38.75
2024-01-14T13:34:30.402Z,36.40
2024-01-14T13:36:58.352Z,35.72
2024-01-14T13:39:26.329Z,32.63
2024-01-14T13:41:54.403Z,33.90
2024-01-14T13:44:22.583Z,38.17
2024-01-14T13:46:50.918Z,35.50
2024-01-14T13:49:20.720Z,34.00
2024-01-14T13:51:48.725Z,37.92
2024-01-14T13:54:17.387Z,36.97
2024-01-14T13:56:46.095Z,38.22
2024-01-14T13:59:14.371Z,38.03
2024-01-14T14:01:42.740Z,35.30
2024-01-14T14:04:11.429Z,35.80
2024-01-14T14:06:42.983Z,43.25
2024-01-14T14:09:11.163Z,46.72
2024-01-14T14:11:39.407Z,46.60
2024-01-14T14:14:07.934Z,42.05
2024-01-14T14:16:41.375Z,37.95
2024-01-14T14:19:12.766Z,41.92
2024-01-14T14:21:54.548Z,43.47
2024-01-14T14:24:28.223Z,43.10
2024-01-14T14:26:56.346Z,45.90
2024-01-14T14:29:26.058Z,42.28
2024-01-14T14:31:56.404Z,45.33
2024-01-14T14:34:25.690Z,47.58
2024-01-14T14:36:56.074Z,45.72
2024-01-14T14:39:24.727Z,44.20
2024-01-14T14:41:52.842Z,47.80
2024-01-14T14:44:20.699Z,51.33
2024-01-14T14:46:48.929Z,49.25
2024-01-14T14:49:17.051Z,48.95
2024-01-14T14:51:45.108Z,47.80
2024-01-14T14:54:14.612Z,52.58
2024-01-14T14:56:42.472Z,46.25
2024-01-14T14:59:10.774Z,54.72
2024-01-14T15:01:43.393Z,52.63
2024-01-14T15:04:15.611Z,56.03
2024-01-14T15:06:45.328Z,45.67
2024-01-14T15:09:16.628Z,51.97
2024-01-14T15:11:45.016Z,47.85
2024-01-14T15:14:13.173Z,48.42
2024-01-14T15:16:42.358Z,46.67
2024-01-14T15:19:10.522Z,51.50
2024-01-14T15:21:38.765Z,45.47
2024-01-14T15:24:07.080Z,53.72
2024-01-14T15:26:36.459Z,49.25
2024-01-14T15:29:04.865Z,50.35
2024-01-14T15:31:33.018Z,60.30
2024-01-14T15:34:01.669Z,53.20
2024-01-14T15:36:29.797Z,53.15
2024-01-14T15:38:57.908Z,45.38
2024-01-14T15:41:27.316Z,61.70
2024-01-14T15:43:56.548Z,56.60
2024-01-14T15:46:24.386Z,51.42
2024-01-14T15:48:54.640Z,77.90
2024-01-14T15:51:24.156Z,61.85
2024-01-14T15:53:52.386Z,49.20
2024-01-14T15:56:20.302Z,50.53
2024-01-14T15:58:48.112Z,51.72
2024-01-14T16:01:20.968Z,50.90
2024-01-14T16:03:49.486Z,47.38
2024-01-14T16:06:17.799Z,50.60
2024-01-14T16:08:47.195Z,52.00
2024-01-14T16:11:16.402Z,47.08
2024-01-14T16:13:44.652Z,42.92
2024-01-14T16:16:12.805Z,44.88
2024-01-14T16:18:42.181Z,49.22
2024-01-14T16:21:10.305Z,54.13
2024-01-14T16:23:40.476Z,56.45
2024-01-14T16:26:09.794Z,49.03
2024-01-14T16:28:38.103Z,52.05
2024-01-14T16:31:12.245Z,52.20
2024-01-14T16:33:45.933Z,52.67
2024-01-14T16:36:16.035Z,46.00
2024-01-14T16:38:44.761Z,44.90
2024-01-14T16:41:13.384Z,54.55
2024-01-14T16:43:41.341Z,38.78
2024-01-14T16:46:09.446Z,31.00
2024-01-14T16:48:37.670Z,29.50
2024-01-14T16:51:11.829Z,32.25
2024-01-14T16:53:41.613Z,30.10
2024-01-14T16:56:13.809Z,34.20
2024-01-14T16:58:44.082Z,34.70
2024-01-14T17:01:17.045Z,37.60
2024-01-14T17:03:48.051Z,40.85
2024-01-14T17:06:18.377Z,34.88
2024-01-14T17:08:47.303Z,42.15
2024-01-14T17:11:16.294Z,40.90
2024-01-14T17:13:44.631Z,44.88
2024-01-14T17:16:21.100Z,43.90
2024-01-14T17:18:49.361Z,40.88
2024-01-14T17:21:19.571Z,45.88
2024-01-14T17:23:48.192Z,44.90
2024-01-14T17:26:16.567Z,43.85
2024-01-14T17:28:44.782Z,38.30
2024-01-14T17:31:15.257Z,54.35
2024-01-14T17:33:45.650Z,46.03
2024-01-14T17:36:16.737Z,52.38
2024-01-14T17:38:48.437Z,52.42
2024-01-14T17:41:16.494Z,45.75
2024-01-14T17:43:44.610Z,43.40
2024-01-14T17:46:12.934Z,41.35
2024-01-14T17:48:45.846Z,52.47
2024-01-14T17:51:14.299Z,49.55
2024-01-14T17:53:43.204Z,46.10
2024-01-14T17:56:13.904Z,59.15
2024-01-14T17:58:42.284Z,46.05
2024-01-14T18:01:11.763Z,45.20
2024-01-14T18:03:41.970Z,48.40
2024-01-14T18:06:11.954Z,48.20
2024-01-14T18:08:40.576Z,45.38
2024-01-14T18:11:09.307Z,45.85
2024-01-14T18:13:38.749Z,47.80
2024-01-14T18:16:07.250Z,48.05
2024-01-14T18:18:36.471Z,49.92
2024-01-14T18:21:04.740Z,52.97
2024-01-14T18:23:32.878Z,49.63
2024-01-14T18:26:00.750Z,49.25
2024-01-14T18:28:28.777Z,53.83
2024-01-14T18:30:58.710Z,57.58
2024-01-14T18:33:27.152Z,60.42
2024-01-14T18:35:55.172Z,56.65
2024-01-14T18:38:25.578Z,54.63
2024-01-14T18:40:53.467Z,58.78
2024-01-14T18:43:21.307Z,54.65
2024-01-14T18:45:49.214Z,53.10
2024-01-14T18:48:18.666Z,53.17
2024-01-14T18:50:48.728Z,59.35
2024-01-14T18:53:16.768Z,59.67
2024-01-14T18:55:44.572Z,54.88
2024-01-14T18:58:13.012Z,56.17
2024-01-14T19:00:41.030Z,63.25
2024-01-14T19:03:08.970Z,59.70
2024-01-14T19:05:38.630Z,58.13
2024-01-14T19:08:07.266Z,55.50
2024-01-14T19:10:35.230Z,62.10
2024-01-14T19:13:03.222Z,59.72
2024-01-14T19:15:31.158Z,58.58
2024-01-14T19:17:59.422Z,59.03
2024-01-14T19:20:27.393Z,61.10
2024-01-14T19:22:56.793Z,58.15
2024-01-14T19:25:24.703Z,48.22
2024-01-14T19:27:52.754Z,55.63
2024-01-14T19:30:20.849Z,61.25
2024-01-14T19:32:48.818Z,60.28
2024-01-14T19:35:16.937Z,57.78
2024-01-14T19:37:46.815Z,61.85
2024-01-14T19:40:16.756Z,58.33
2024-01-14T19:42:44.872Z,66.15
2024-01-14T19:45:14.100Z,54.22
2024-01-14T19:47:42.540Z,60.20
2024-01-14T19:50:12.282Z,56.75
2024-01-14T19:52:40.338Z,54.10
2024-01-14T19:55:08.371Z,55.60
2024-01-14T19:57:37.728Z,58.30
2024-01-14T20:00:10.568Z,56.80
2024-01-14T20:02:38.856Z,54.97
2024-01-14T20:05:08.739Z,58.88
2024-01-14T20:07:37.055Z,53.40
2024-01-14T20:10:05.264Z,50.92
2024-01-14T20:12:33.232Z,56.13
2024-01-14T20:15:02.514Z,59.70
2024-01-14T20:17:30.399Z,54.30
2024-01-14T20:19:58.515Z,52.28
2024-01-14T20:22:26.567Z,51.95
2024-01-14T20:24:54.472Z,60.90
2024-01-14T20:27:23.526Z,59.78
2024-01-14T20:29:51.673Z,54.85
2024-01-14T20:32:21.612Z,56.45
2024-01-14T20:34:51.005Z,48.17
2024-01-14T20:37:18.979Z,53.45
2024-01-14T20:39:47.102Z,51.53
2024-01-14T20:42:15.037Z,48.83
2024-01-14T20:44:43.133Z,48.00
2024-01-14T20:47:11.113Z,53.08
2024-01-14T20:49:41.377Z,54.13
2024-01-14T20:52:09.527Z,48.70
2024-01-14T20:54:37.684Z,46.38
2024-01-14T20:57:09.587Z,52.17
2024-01-14T20:59:37.603Z,47.33
2024-01-14T21:02:06.448Z,49.80
2024-01-14T21:04:34.428Z,52.25
2024-01-14T21:07:03.819Z,51.63
2024-01-14T21:09:31.685Z,59.05
2024-01-14T21:11:59.545Z,48.60
2024-01-14T21:14:28.167Z,48.58
2024-01-14T21:16:56.231Z,45.20
2024-01-14T21:19:24.796Z,50.08
2024-01-14T21:21:52.881Z,46.53
2024-01-14T21:24:22.150Z,42.65
2024-01-14T21:26:50.240Z,45.58
2024-01-14T21:29:18.126Z,45.05
2024-01-14T21:31:46.288Z,150.80
2024-01-14T21:34:14.552Z,75.88
2024-01-14T21:36:42.611Z,47.22
2024-01-14T21:39:11.884Z,44.42
2024-01-14T21:41:41.291Z,39.42
2024-01-14T21:44:09.142Z,40.97
2024-01-14T21:46:37.610Z,40.70
2024-01-14T21:49:05.569Z,38.08
2024-01-14T21:51:33.525Z,40.03
2024-01-14T21:54:01.403Z,42.80
2024-01-14T21:56:29.282Z,39.90
2024-01-14T21:58:58.528Z,41.08
2024-01-14T22:01:26.382Z,35.15
2024-01-14T22:03:54.257Z,36.25
2024-01-14T22:06:22.377Z,36.38
2024-01-14T22:08:50.659Z,44.25
2024-01-14T22:11:18.459Z,33.63
2024-01-14T22:13:47.511Z,34.42
2024-01-14T22:16:16.702Z,30.17
2024-01-14T22:18:44.772Z,32.25
2024-01-14T22:21:12.828Z,35.85
2024-01-14T22:23:40.742Z,32.47
2024-01-14T22:26:08.610Z,37.97
2024-01-14T22:28:36.397Z,27.95
2024-01-14T22:31:04.516Z,30.23
2024-01-14T22:33:34.085Z,37.25
2024-01-14T22:36:04.049Z,36.47
2024-01-14T22:38:31.920Z,36.13
2024-01-14T22:40:59.949Z,34.00
2024-01-14T22:43:28.599Z,30.42
2024-01-14T22:45:56.649Z,29.73
2024-01-14T22:48:25.101Z,37.70
2024-01-14T22:50:54.556Z,28.77
2024-01-14T22:53:23.215Z,30.88
2024-01-14T22:55:51.011Z,32.45
2024-01-14T22:58:19.657Z,29.67
2024-01-14T23:00:48.159Z,34.50
2024-01-14T23:03:16.192Z,29.52
2024-01-14T23:05:44.075Z,29.10
2024-01-14T23:08:13.287Z,28.52
2024-01-14T23:10:41.188Z,28.92
2024-01-14T23:13:09.005Z,28.65
2024-01-14T23:15:36.928Z,25.67
2024-01-14T23:18:05.686Z,31.98
2024-01-14T23:20:33.647Z,29.42
2024-01-14T23:23:01.815Z,33.83
2024-01-14T23:25:30.948Z,29.80
2024-01-14T23:27:58.883Z,29.98
2024-01-14T23:30:26.871Z,32.90
2024-01-14T23:32:54.729Z,27.35
2024-01-14T23:35:22.632Z,30.80
2024-01-14T23:37:50.465Z,33.83
2024-01-14T23:40:19.946Z,30.35
2024-01-14T23:42:49.292Z,27.27
2024-01-14T23:45:17.961Z,33.90
2024-01-14T23:47:46.125Z,26.92
2024-01-14T23:50:14.056Z,25.08
2024-01-14T23:52:41.832Z,26.75
2024-01-14T23:55:10.191Z,27.35
2024-01-14T23:57:38.052Z,27.08
